Terminal Aerodrome Forecast
Issued by NWS

Home | Current Version | Previous Version | Text Only | Print | Product List | Glossary On
Versions: 1 2 3 4 5 6 7 8 9 10 11 12 13 14 15 16 17 18 19 20
000
FTUS46 KSEW 302100 AAB
TAFOLM
TAF AMD
KOLM 302156Z 3022/3118 VRB03KT 1/2SM FG VV002
      TEMPO 3022/3024 1/4SM FG
     FM310000 VRB03KT 2SM BR OVC004
     FM310300 00000KT 3/4SM BR OVC003
     FM310600 00000KT 1/4SM FG VV001=

USA.gov is the U.S. government's official web portal to all federal, state and local government web resources and services.